sensor_id;sensor_type;location;lat;lon;timestamp;pressure;altitude;pressure_sealevel;temperature;humidity
45323;BME280;31382;50.200;8.674;2024-03-08T00:01:50;100544.38;;;6.29;54.87
45323;BME280;31382;50.200;8.674;2024-03-08T00:06:51;100544.13;;;6.23;54.68
45323;BME280;31382;50.200;8.674;2024-03-08T00:11:53;100539.50;;;6.15;55.11
45323;BME280;31382;50.200;8.674;2024-03-08T00:16:54;100535.84;;;6.06;54.65
45323;BME280;31382;50.200;8.674;2024-03-08T00:21:56;100538.53;;;5.97;54.82
45323;BME280;31382;50.200;8.674;2024-03-08T00:26:57;100538.63;;;5.85;55.69
45323;BME280;31382;50.200;8.674;2024-03-08T00:32:00;100544.94;;;5.74;55.70
45323;BME280;31382;50.200;8.674;2024-03-08T00:37:03;100531.63;;;5.65;55.50
45323;BME280;31382;50.200;8.674;2024-03-08T00:42:05;100540.84;;;5.51;55.74
45323;BME280;31382;50.200;8.674;2024-03-08T00:47:06;100532.00;;;5.41;56.06
45323;BME280;31382;50.200;8.674;2024-03-08T00:52:08;100527.66;;;5.30;55.77
45323;BME280;31382;50.200;8.674;2024-03-08T00:57:10;100522.16;;;5.22;56.51
45323;BME280;31382;50.200;8.674;2024-03-08T01:02:12;100518.34;;;5.14;56.38
45323;BME280;31382;50.200;8.674;2024-03-08T01:07:13;100515.78;;;5.03;56.61
45323;BME280;31382;50.200;8.674;2024-03-08T01:12:15;100511.13;;;4.95;56.91
45323;BME280;31382;50.200;8.674;2024-03-08T01:17:16;100501.03;;;4.89;56.83
45323;BME280;31382;50.200;8.674;2024-03-08T01:22:19;100490.22;;;4.81;57.25
45323;BME280;31382;50.200;8.674;2024-03-08T01:27:20;100488.94;;;4.75;57.44
45323;BME280;31382;50.200;8.674;2024-03-08T01:32:21;100477.16;;;4.68;57.09
45323;BME280;31382;50.200;8.674;2024-03-08T01:37:24;100470.25;;;4.66;57.49
45323;BME280;31382;50.200;8.674;2024-03-08T01:42:26;100465.59;;;4.58;57.54
45323;BME280;31382;50.200;8.674;2024-03-08T01:47:27;100467.84;;;4.53;58.08
45323;BME280;31382;50.200;8.674;2024-03-08T01:52:30;100453.94;;;4.49;57.65
45323;BME280;31382;50.200;8.674;2024-03-08T01:57:33;100460.53;;;4.45;57.97
45323;BME280;31382;50.200;8.674;2024-03-08T02:02:35;100456.31;;;4.43;58.05
45323;BME280;31382;50.200;8.674;2024-03-08T02:07:41;100442.56;;;4.37;57.76
45323;BME280;31382;50.200;8.674;2024-03-08T02:12:46;100434.97;;;4.33;57.79
45323;BME280;31382;50.200;8.674;2024-03-08T02:17:48;100434.13;;;4.32;57.95
45323;BME280;31382;50.200;8.674;2024-03-08T02:22:50;100428.09;;;4.30;58.29
45323;BME280;31382;50.200;8.674;2024-03-08T02:27:52;100427.38;;;4.28;58.11
45323;BME280;31382;50.200;8.674;2024-03-08T02:32:53;100418.69;;;4.26;57.81
45323;BME280;31382;50.200;8.674;2024-03-08T02:37:55;100423.19;;;4.26;58.58
45323;BME280;31382;50.200;8.674;2024-03-08T02:42:56;100417.84;;;4.26;58.04
45323;BME280;31382;50.200;8.674;2024-03-08T02:47:57;100419.81;;;4.24;58.38
45323;BME280;31382;50.200;8.674;2024-03-08T02:52:59;100410.16;;;4.23;58.57
45323;BME280;31382;50.200;8.674;2024-03-08T02:58:00;100417.16;;;4.24;58.66
45323;BME280;31382;50.200;8.674;2024-03-08T03:03:02;100411.38;;;4.18;58.25
45323;BME280;31382;50.200;8.674;2024-03-08T03:08:04;100405.22;;;4.18;58.42
45323;BME280;31382;50.200;8.674;2024-03-08T03:13:11;100407.16;;;4.16;58.65
45323;BME280;31382;50.200;8.674;2024-03-08T03:18:13;100402.25;;;4.11;58.76
45323;BME280;31382;50.200;8.674;2024-03-08T03:23:15;100404.34;;;4.08;59.11
45323;BME280;31382;50.200;8.674;2024-03-08T03:28:21;100400.38;;;4.02;59.16
45323;BME280;31382;50.200;8.674;2024-03-08T03:33:25;100389.88;;;4.01;59.27
45323;BME280;31382;50.200;8.674;2024-03-08T03:38:27;100381.19;;;3.98;59.09
45323;BME280;31382;50.200;8.674;2024-03-08T03:43:29;100384.84;;;3.97;59.17
45323;BME280;31382;50.200;8.674;2024-03-08T03:48:30;100384.72;;;3.99;59.29
45323;BME280;31382;50.200;8.674;2024-03-08T03:53:33;100382.19;;;3.97;59.21
45323;BME280;31382;50.200;8.674;2024-03-08T03:58:34;100384.13;;;3.95;59.66
45323;BME280;31382;50.200;8.674;2024-03-08T04:03:36;100381.00;;;3.90;59.38
45323;BME280;31382;50.200;8.674;2024-03-08T04:08:38;100377.94;;;3.85;59.13
45323;BME280;31382;50.200;8.674;2024-03-08T04:13:39;100378.19;;;3.82;59.96
45323;BME280;31382;50.200;8.674;2024-03-08T04:18:41;100372.28;;;3.78;60.07
45323;BME280;31382;50.200;8.674;2024-03-08T04:23:42;100379.53;;;3.76;60.06
45323;BME280;31382;50.200;8.674;2024-03-08T04:28:46;100371.69;;;3.75;59.94
45323;BME280;31382;50.200;8.674;2024-03-08T04:33:48;100365.66;;;3.73;60.08
45323;BME280;31382;50.200;8.674;2024-03-08T04:38:49;100368.06;;;3.76;59.96
45323;BME280;31382;50.200;8.674;2024-03-08T04:43:52;100364.69;;;3.74;60.09
45323;BME280;31382;50.200;8.674;2024-03-08T04:48:53;100364.94;;;3.71;60.10
45323;BME280;31382;50.200;8.674;2024-03-08T04:53:55;100364.53;;;3.66;60.11
45323;BME280;31382;50.200;8.674;2024-03-08T04:58:58;100361.69;;;3.57;60.47
45323;BME280;31382;50.200;8.674;2024-03-08T05:03:59;100363.03;;;3.52;60.28
45323;BME280;31382;50.200;8.674;2024-03-08T05:09:06;100357.53;;;3.44;60.70
45323;BME280;31382;50.200;8.674;2024-03-08T05:14:17;100352.16;;;3.34;60.50
45323;BME280;31382;50.200;8.674;2024-03-08T05:19:21;100352.28;;;3.32;60.53
45323;BME280;31382;50.200;8.674;2024-03-08T05:24:22;100351.38;;;3.22;60.95
45323;BME280;31382;50.200;8.674;2024-03-08T05:29:24;100359.25;;;3.12;61.09
45323;BME280;31382;50.200;8.674;2024-03-08T05:34:25;100357.44;;;3.13;61.24
45323;BME280;31382;50.200;8.674;2024-03-08T05:39:29;100354.19;;;3.09;61.23
45323;BME280;31382;50.200;8.674;2024-03-08T05:44:31;100352.53;;;3.08;60.86
45323;BME280;31382;50.200;8.674;2024-03-08T05:49:33;100347.44;;;3.05;61.35
45323;BME280;31382;50.200;8.674;2024-03-08T05:54:35;100349.78;;;2.98;61.73
45323;BME280;31382;50.200;8.674;2024-03-08T05:59:36;100338.88;;;3.02;61.60
45323;BME280;31382;50.200;8.674;2024-03-08T06:04:38;100332.03;;;2.99;61.42
45323;BME280;31382;50.200;8.674;2024-03-08T06:09:39;100332.94;;;3.09;61.66
45323;BME280;31382;50.200;8.674;2024-03-08T06:14:41;100333.13;;;3.17;61.27
45323;BME280;31382;50.200;8.674;2024-03-08T06:19:42;100337.09;;;3.23;61.12
45323;BME280;31382;50.200;8.674;2024-03-08T06:24:44;100332.13;;;3.30;61.49
45323;BME280;31382;50.200;8.674;2024-03-08T06:29:45;100329.78;;;3.36;61.03
45323;BME280;31382;50.200;8.674;2024-03-08T06:34:47;100323.25;;;3.41;61.63
45323;BME280;31382;50.200;8.674;2024-03-08T06:39:48;100333.22;;;3.48;61.16
45323;BME280;31382;50.200;8.674;2024-03-08T06:44:51;100328.66;;;3.60;61.29
45323;BME280;31382;50.200;8.674;2024-03-08T06:49:56;100328.00;;;3.68;61.62
45323;BME280;31382;50.200;8.674;2024-03-08T06:54:58;100327.19;;;3.77;61.36
45323;BME280;31382;50.200;8.674;2024-03-08T06:59:59;100328.25;;;3.86;61.63
45323;BME280;31382;50.200;8.674;2024-03-08T07:05:01;100323.66;;;3.97;61.71
45323;BME280;31382;50.200;8.674;2024-03-08T07:10:03;100318.25;;;4.09;61.80
45323;BME280;31382;50.200;8.674;2024-03-08T07:15:06;100306.41;;;4.23;61.35
45323;BME280;31382;50.200;8.674;2024-03-08T07:20:08;100301.94;;;4.33;61.05
45323;BME280;31382;50.200;8.674;2024-03-08T07:25:14;100300.00;;;4.45;61.30
45323;BME280;31382;50.200;8.674;2024-03-08T07:30:30;100292.56;;;4.58;61.03
45323;BME280;31382;50.200;8.674;2024-03-08T07:35:47;100289.38;;;4.74;61.41
45323;BME280;31382;50.200;8.674;2024-03-08T07:40:48;100291.06;;;4.94;61.10
45323;BME280;31382;50.200;8.674;2024-03-08T07:45:50;100278.13;;;5.09;61.29
45323;BME280;31382;50.200;8.674;2024-03-08T07:50:54;100276.13;;;5.31;61.30
45323;BME280;31382;50.200;8.674;2024-03-08T07:55:55;100271.56;;;5.51;60.42
45323;BME280;31382;50.200;8.674;2024-03-08T08:00:57;100261.00;;;5.69;60.19
45323;BME280;31382;50.200;8.674;2024-03-08T08:05:58;100264.56;;;5.87;60.35
45323;BME280;31382;50.200;8.674;2024-03-08T08:11:00;100248.63;;;6.05;59.76
45323;BME280;31382;50.200;8.674;2024-03-08T08:16:03;100242.50;;;6.23;59.85
45323;BME280;31382;50.200;8.674;2024-03-08T08:21:05;100231.84;;;6.41;59.81
45323;BME280;31382;50.200;8.674;2024-03-08T08:26:10;100219.94;;;6.53;59.48
45323;BME280;31382;50.200;8.674;2024-03-08T08:31:12;100226.94;;;6.72;58.91
45323;BME280;31382;50.200;8.674;2024-03-08T08:36:14;100206.38;;;6.90;58.98
45323;BME280;31382;50.200;8.674;2024-03-08T08:41:16;100202.53;;;7.11;58.92
45323;BME280;31382;50.200;8.674;2024-03-08T08:46:18;100191.94;;;7.27;58.18
45323;BME280;31382;50.200;8.674;2024-03-08T08:51:21;100195.47;;;7.36;58.28
45323;BME280;31382;50.200;8.674;2024-03-08T08:56:24;100181.69;;;7.49;57.83
45323;BME280;31382;50.200;8.674;2024-03-08T09:01:26;100186.56;;;7.62;57.20
45323;BME280;31382;50.200;8.674;2024-03-08T09:06:28;100175.09;;;7.78;57.04
45323;BME280;31382;50.200;8.674;2024-03-08T09:11:31;100167.31;;;8.01;56.84
45323;BME280;31382;50.200;8.674;2024-03-08T09:16:32;100160.16;;;8.18;56.83
45323;BME280;31382;50.200;8.674;2024-03-08T09:21:34;100146.78;;;8.34;56.59
45323;BME280;31382;50.200;8.674;2024-03-08T09:26:38;100137.78;;;8.43;55.90
45323;BME280;31382;50.200;8.674;2024-03-08T09:31:43;100137.59;;;8.61;55.97
45323;BME280;31382;50.200;8.674;2024-03-08T09:36:47;100128.34;;;8.80;55.48
45323;BME280;31382;50.200;8.674;2024-03-08T09:41:49;100114.09;;;8.96;55.29
45323;BME280;31382;50.200;8.674;2024-03-08T09:46:50;100097.94;;;9.21;55.00
45323;BME280;31382;50.200;8.674;2024-03-08T09:51:54;100089.97;;;9.36;54.58
45323;BME280;31382;50.200;8.674;2024-03-08T09:56:57;100079.66;;;9.56;54.32
45323;BME280;31382;50.200;8.674;2024-03-08T10:01:58;100064.19;;;9.66;53.98
45323;BME280;31382;50.200;8.674;2024-03-08T10:07:01;100059.25;;;9.78;53.71
45323;BME280;31382;50.200;8.674;2024-03-08T10:12:04;100046.69;;;9.93;52.86
45323;BME280;31382;50.200;8.674;2024-03-08T10:17:06;100037.22;;;10.05;52.48
45323;BME280;31382;50.200;8.674;2024-03-08T10:22:15;100034.09;;;10.17;52.10
45323;BME280;31382;50.200;8.674;2024-03-08T10:27:17;100028.41;;;10.35;51.61
45323;BME280;31382;50.200;8.674;2024-03-08T10:32:18;100031.22;;;10.56;51.27
45323;BME280;31382;50.200;8.674;2024-03-08T10:37:22;100026.69;;;10.71;50.87
45323;BME280;31382;50.200;8.674;2024-03-08T10:42:28;100013.53;;;10.91;50.42
45323;BME280;31382;50.200;8.674;2024-03-08T10:47:30;100013.41;;;11.15;49.52
45323;BME280;31382;50.200;8.674;2024-03-08T10:52:32;99994.63;;;11.36;49.01
45323;BME280;31382;50.200;8.674;2024-03-08T10:57:36;99987.78;;;11.55;48.56
45323;BME280;31382;50.200;8.674;2024-03-08T11:02:43;99982.22;;;11.78;47.98
45323;BME280;31382;50.200;8.674;2024-03-08T11:07:45;99976.50;;;11.88;47.85
45323;BME280;31382;50.200;8.674;2024-03-08T11:12:46;99974.22;;;11.85;47.75
45323;BME280;31382;50.200;8.674;2024-03-08T11:17:50;99963.72;;;11.90;47.41
45323;BME280;31382;50.200;8.674;2024-03-08T11:22:53;99956.72;;;11.96;47.07
45323;BME280;31382;50.200;8.674;2024-03-08T11:28:17;99949.22;;;12.19;46.21
45323;BME280;31382;50.200;8.674;2024-03-08T11:33:19;99931.72;;;12.37;46.20
45323;BME280;31382;50.200;8.674;2024-03-08T11:38:21;99930.50;;;12.39;45.94
45323;BME280;31382;50.200;8.674;2024-03-08T11:43:22;99916.31;;;12.65;45.17
45323;BME280;31382;50.200;8.674;2024-03-08T11:48:24;99898.19;;;13.01;44.97
45323;BME280;31382;50.200;8.674;2024-03-08T11:53:25;99888.13;;;15.26;40.85
45323;BME280;31382;50.200;8.674;2024-03-08T11:58:27;99876.69;;;15.50;41.09
45323;BME280;31382;50.200;8.674;2024-03-08T12:03:29;99851.06;;;18.31;37.51
45323;BME280;31382;50.200;8.674;2024-03-08T12:08:35;99829.97;;;25.18;27.52
45323;BME280;31382;50.200;8.674;2024-03-08T12:13:37;99849.22;;;30.07;22.88
45323;BME280;31382;50.200;8.674;2024-03-08T12:18:38;99855.56;;;32.30;20.53
45323;BME280;31382;50.200;8.674;2024-03-08T12:23:40;99848.03;;;33.87;19.25
45323;BME280;31382;50.200;8.674;2024-03-08T12:28:43;99840.06;;;34.59;18.50
45323;BME280;31382;50.200;8.674;2024-03-08T12:33:49;99835.66;;;35.51;17.42
45323;BME280;31382;50.200;8.674;2024-03-08T12:38:53;99838.63;;;35.71;16.74
45323;BME280;31382;50.200;8.674;2024-03-08T12:43:55;99822.91;;;35.38;16.54
45323;BME280;31382;50.200;8.674;2024-03-08T12:48:57;99815.91;;;35.16;16.21
45323;BME280;31382;50.200;8.674;2024-03-08T12:53:58;99810.16;;;35.53;15.71
45323;BME280;31382;50.200;8.674;2024-03-08T12:59:02;99804.22;;;36.50;14.76
45323;BME280;31382;50.200;8.674;2024-03-08T13:04:04;99795.94;;;37.51;13.85
45323;BME280;31382;50.200;8.674;2024-03-08T13:09:07;99794.69;;;38.14;13.38
45323;BME280;31382;50.200;8.674;2024-03-08T13:14:09;99787.47;;;37.08;14.13
45323;BME280;31382;50.200;8.674;2024-03-08T13:19:11;99781.59;;;37.76;13.46
45323;BME280;31382;50.200;8.674;2024-03-08T13:24:13;99781.41;;;37.88;13.35
45323;BME280;31382;50.200;8.674;2024-03-08T13:29:17;99770.31;;;36.90;13.76
45323;BME280;31382;50.200;8.674;2024-03-08T13:34:19;99756.41;;;36.07;14.30
45323;BME280;31382;50.200;8.674;2024-03-08T13:39:29;99756.03;;;35.61;14.56
45323;BME280;31382;50.200;8.674;2024-03-08T13:44:32;99747.63;;;30.59;17.97
45323;BME280;31382;50.200;8.674;2024-03-08T13:49:34;99733.75;;;31.20;16.65
45323;BME280;31382;50.200;8.674;2024-03-08T13:54:36;99720.25;;;31.96;16.12
45323;BME280;31382;50.200;8.674;2024-03-08T13:59:38;99714.84;;;32.50;15.91
45323;BME280;31382;50.200;8.674;2024-03-08T14:04:39;99700.69;;;31.84;16.43
45323;BME280;31382;50.200;8.674;2024-03-08T14:09:42;99692.59;;;32.71;15.98
45323;BME280;31382;50.200;8.674;2024-03-08T14:14:44;99695.44;;;32.41;16.06
45323;BME280;31382;50.200;8.674;2024-03-08T14:19:46;99684.88;;;32.35;15.78
45323;BME280;31382;50.200;8.674;2024-03-08T14:24:47;99677.13;;;32.19;16.17
45323;BME280;31382;50.200;8.674;2024-03-08T14:29:50;99651.47;;;32.14;16.07
45323;BME280;31382;50.200;8.674;2024-03-08T14:34:52;99640.72;;;31.35;16.64
45323;BME280;31382;50.200;8.674;2024-03-08T14:39:53;99627.78;;;31.39;16.42
45323;BME280;31382;50.200;8.674;2024-03-08T14:44:56;99626.84;;;30.44;17.37
45323;BME280;31382;50.200;8.674;2024-03-08T14:49:58;99624.53;;;30.20;17.40
45323;BME280;31382;50.200;8.674;2024-03-08T14:54:59;99608.53;;;29.91;17.46
45323;BME280;31382;50.200;8.674;2024-03-08T15:00:01;99604.78;;;29.07;18.02
45323;BME280;31382;50.200;8.674;2024-03-08T15:05:08;99604.09;;;28.11;18.70
45323;BME280;31382;50.200;8.674;2024-03-08T15:10:12;99593.66;;;26.97;19.49
45323;BME280;31382;50.200;8.674;2024-03-08T15:15:17;99593.31;;;25.76;20.68
45323;BME280;31382;50.200;8.674;2024-03-08T15:20:19;99582.88;;;25.73;20.40
45323;BME280;31382;50.200;8.674;2024-03-08T15:25:31;99578.81;;;25.89;20.45
45323;BME280;31382;50.200;8.674;2024-03-08T15:30:35;99585.38;;;24.33;21.78
45323;BME280;31382;50.200;8.674;2024-03-08T15:35:37;99558.81;;;23.74;22.03
45323;BME280;31382;50.200;8.674;2024-03-08T15:40:39;99564.31;;;23.74;22.08
45323;BME280;31382;50.200;8.674;2024-03-08T15:45:40;99548.66;;;23.04;22.68
45323;BME280;31382;50.200;8.674;2024-03-08T15:50:42;99556.09;;;22.16;23.10
45323;BME280;31382;50.200;8.674;2024-03-08T15:55:43;99557.88;;;21.59;23.83
45323;BME280;31382;50.200;8.674;2024-03-08T16:00:46;99545.47;;;20.84;24.52
45323;BME280;31382;50.200;8.674;2024-03-08T16:05:49;99549.41;;;20.60;24.75
45323;BME280;31382;50.200;8.674;2024-03-08T16:10:52;99546.06;;;20.58;25.04
45323;BME280;31382;50.200;8.674;2024-03-08T16:15:57;99540.47;;;20.38;24.92
45323;BME280;31382;50.200;8.674;2024-03-08T16:21:00;99537.06;;;19.93;25.43
45323;BME280;31382;50.200;8.674;2024-03-08T16:26:04;99543.41;;;19.28;26.06
45323;BME280;31382;50.200;8.674;2024-03-08T16:31:06;99537.22;;;18.59;26.87
45323;BME280;31382;50.200;8.674;2024-03-08T16:36:09;99545.97;;;17.82;27.71
45323;BME280;31382;50.200;8.674;2024-03-08T16:41:12;99537.91;;;17.18;28.48
45323;BME280;31382;50.200;8.674;2024-03-08T16:46:14;99537.22;;;16.52;29.43
45323;BME280;31382;50.200;8.674;2024-03-08T16:51:16;99538.66;;;16.00;30.05
45323;BME280;31382;50.200;8.674;2024-03-08T16:56:17;99537.72;;;15.46;30.68
45323;BME280;31382;50.200;8.674;2024-03-08T17:01:19;99542.03;;;14.98;31.23
45323;BME280;31382;50.200;8.674;2024-03-08T17:06:20;99540.53;;;14.59;31.79
45323;BME280;31382;50.200;8.674;2024-03-08T17:11:24;99535.03;;;14.22;32.55
45323;BME280;31382;50.200;8.674;2024-03-08T17:16:26;99538.16;;;13.87;33.24
45323;BME280;31382;50.200;8.674;2024-03-08T17:21:27;99543.41;;;13.43;33.67
45323;BME280;31382;50.200;8.674;2024-03-08T17:26:30;99535.38;;;13.10;34.48
45323;BME280;31382;50.200;8.674;2024-03-08T17:31:32;99539.00;;;12.77;35.04
45323;BME280;31382;50.200;8.674;2024-03-08T17:36:34;99539.25;;;12.42;35.46
45323;BME280;31382;50.200;8.674;2024-03-08T17:41:36;99538.63;;;12.14;36.14
45323;BME280;31382;50.200;8.674;2024-03-08T17:46:38;99549.78;;;11.90;36.32
45323;BME280;31382;50.200;8.674;2024-03-08T17:51:40;99547.00;;;11.64;36.98
45323;BME280;31382;50.200;8.674;2024-03-08T17:56:43;99554.59;;;11.47;37.42
45323;BME280;31382;50.200;8.674;2024-03-08T18:01:44;99543.94;;;11.25;38.06
45323;BME280;31382;50.200;8.674;2024-03-08T18:06:46;99545.75;;;11.11;38.71
45323;BME280;31382;50.200;8.674;2024-03-08T18:11:51;99539.88;;;10.95;38.81
45323;BME280;31382;50.200;8.674;2024-03-08T18:16:53;99536.28;;;10.81;39.49
45323;BME280;31382;50.200;8.674;2024-03-08T18:21:54;99534.56;;;10.66;39.73
45323;BME280;31382;50.200;8.674;2024-03-08T18:26:56;99534.25;;;10.55;39.78
45323;BME280;31382;50.200;8.674;2024-03-08T18:31:58;99532.09;;;10.43;40.30
45323;BME280;31382;50.200;8.674;2024-03-08T18:37:00;99537.38;;;10.30;40.32
45323;BME280;31382;50.200;8.674;2024-03-08T18:42:01;99530.22;;;10.16;41.06
45323;BME280;31382;50.200;8.674;2024-03-08T18:47:03;99531.53;;;10.05;41.31
45323;BME280;31382;50.200;8.674;2024-03-08T18:52:05;99523.16;;;9.93;41.82
45323;BME280;31382;50.200;8.674;2024-03-08T18:57:07;99514.16;;;9.79;42.05
45323;BME280;31382;50.200;8.674;2024-03-08T19:02:09;99516.53;;;9.67;42.42
45323;BME280;31382;50.200;8.674;2024-03-08T19:07:10;99523.06;;;9.58;42.58
45323;BME280;31382;50.200;8.674;2024-03-08T19:12:12;99514.47;;;9.48;43.00
45323;BME280;31382;50.200;8.674;2024-03-08T19:17:14;99508.19;;;9.41;43.04
45323;BME280;31382;50.200;8.674;2024-03-08T19:22:15;99504.25;;;9.37;43.45
45323;BME280;31382;50.200;8.674;2024-03-08T19:27:18;99500.63;;;9.29;43.61
45323;BME280;31382;50.200;8.674;2024-03-08T19:32:20;99490.84;;;9.22;43.95
45323;BME280;31382;50.200;8.674;2024-03-08T19:37:22;99489.50;;;9.11;44.09
45323;BME280;31382;50.200;8.674;2024-03-08T19:42:23;99500.13;;;9.04;44.78
45323;BME280;31382;50.200;8.674;2024-03-08T19:47:26;99497.66;;;9.03;44.74
45323;BME280;31382;50.200;8.674;2024-03-08T19:52:30;99497.19;;;8.99;44.78
45323;BME280;31382;50.200;8.674;2024-03-08T19:57:32;99502.25;;;8.94;44.95
45323;BME280;31382;50.200;8.674;2024-03-08T20:02:33;99497.47;;;8.89;45.16
45323;BME280;31382;50.200;8.674;2024-03-08T20:07:35;99495.53;;;8.83;45.36
45323;BME280;31382;50.200;8.674;2024-03-08T20:12:38;99490.06;;;8.77;45.85
45323;BME280;31382;50.200;8.674;2024-03-08T20:17:41;99500.88;;;8.68;45.68
45323;BME280;31382;50.200;8.674;2024-03-08T20:22:44;99498.13;;;8.62;45.74
45323;BME280;31382;50.200;8.674;2024-03-08T20:27:49;99489.16;;;8.54;46.05
45323;BME280;31382;50.200;8.674;2024-03-08T20:33:00;99491.56;;;8.49;46.36
45323;BME280;31382;50.200;8.674;2024-03-08T20:38:04;99488.28;;;8.39;46.72
45323;BME280;31382;50.200;8.674;2024-03-08T20:43:11;99483.00;;;8.31;46.64
45323;BME280;31382;50.200;8.674;2024-03-08T20:48:15;99484.13;;;8.22;47.29
45323;BME280;31382;50.200;8.674;2024-03-08T20:53:17;99482.59;;;8.04;47.97
45323;BME280;31382;50.200;8.674;2024-03-08T20:58:20;99477.84;;;7.91;48.36
45323;BME280;31382;50.200;8.674;2024-03-08T21:03:24;99479.78;;;7.83;47.83
45323;BME280;31382;50.200;8.674;2024-03-08T21:08:28;99485.19;;;7.74;48.43
45323;BME280;31382;50.200;8.674;2024-03-08T21:13:30;99479.44;;;7.63;48.88
45323;BME280;31382;50.200;8.674;2024-03-08T21:18:32;99482.16;;;7.54;49.03
45323;BME280;31382;50.200;8.674;2024-03-08T21:23:34;99489.56;;;7.44;48.64
45323;BME280;31382;50.200;8.674;2024-03-08T21:28:36;99483.63;;;7.34;48.92
45323;BME280;31382;50.200;8.674;2024-03-08T21:33:38;99490.56;;;7.20;49.51
45323;BME280;31382;50.200;8.674;2024-03-08T21:38:39;99486.94;;;7.05;49.53
45323;BME280;31382;50.200;8.674;2024-03-08T21:43:41;99484.72;;;6.85;49.52
45323;BME280;31382;50.200;8.674;2024-03-08T21:48:42;99481.59;;;6.73;49.89
45323;BME280;31382;50.200;8.674;2024-03-08T21:53:44;99478.13;;;6.57;49.86
45323;BME280;31382;50.200;8.674;2024-03-08T21:58:45;99484.38;;;6.32;51.14
45323;BME280;31382;50.200;8.674;2024-03-08T22:03:47;99470.84;;;6.26;51.32
45323;BME280;31382;50.200;8.674;2024-03-08T22:08:50;99467.38;;;6.17;50.99
45323;BME280;31382;50.200;8.674;2024-03-08T22:13:52;99474.22;;;6.11;51.94
45323;BME280;31382;50.200;8.674;2024-03-08T22:18:53;99467.56;;;6.07;51.65
45323;BME280;31382;50.200;8.674;2024-03-08T22:23:55;99471.91;;;6.08;51.84
45323;BME280;31382;50.200;8.674;2024-03-08T22:28:57;99475.06;;;6.12;52.23
45323;BME280;31382;50.200;8.674;2024-03-08T22:33:59;99481.25;;;6.12;52.42
45323;BME280;31382;50.200;8.674;2024-03-08T22:39:01;99477.25;;;6.08;52.70
45323;BME280;31382;50.200;8.674;2024-03-08T22:44:03;99478.25;;;5.99;52.65
45323;BME280;31382;50.200;8.674;2024-03-08T22:49:05;99487.38;;;5.88;52.92
45323;BME280;31382;50.200;8.674;2024-03-08T22:54:06;99489.53;;;5.68;53.18
45323;BME280;31382;50.200;8.674;2024-03-08T22:59:07;99485.22;;;5.59;53.09
45323;BME280;31382;50.200;8.674;2024-03-08T23:04:09;99491.22;;;5.53;53.71
45323;BME280;31382;50.200;8.674;2024-03-08T23:09:10;99483.38;;;5.51;53.77
45323;BME280;31382;50.200;8.674;2024-03-08T23:14:15;99490.50;;;5.43;53.31
45323;BME280;31382;50.200;8.674;2024-03-08T23:19:16;99492.50;;;5.32;53.80
45323;BME280;31382;50.200;8.674;2024-03-08T23:24:18;99490.66;;;5.25;54.45
45323;BME280;31382;50.200;8.674;2024-03-08T23:29:20;99480.50;;;5.20;53.99
45323;BME280;31382;50.200;8.674;2024-03-08T23:34:22;99485.81;;;5.12;54.05
45323;BME280;31382;50.200;8.674;2024-03-08T23:39:26;99492.09;;;5.03;54.51
45323;BME280;31382;50.200;8.674;2024-03-08T23:44:27;99486.06;;;4.92;55.01
45323;BME280;31382;50.200;8.674;2024-03-08T23:49:29;99478.06;;;4.92;54.82
45323;BME280;31382;50.200;8.674;2024-03-08T23:54:31;99485.84;;;4.86;55.37
45323;BME280;31382;50.200;8.674;2024-03-08T23:59:34;99482.72;;;4.82;55.08
